Time;durP1;ratioP1;P1;durP2;ratioP2;P2;SDS_P1;SDS_P2;PMS_P1;PMS_P2;Temp;Humidity;BMP_temperature;BMP_pressure;BME280_temperature;BME280_humidity;BME280_pressure;Samples;Min_cycle;Max_cycle;Signal;HPM_P1;HPM_P2
2022/01/25 00:31:16;;;;;;;10.73;3.83;;;16.40;78.60;;;;;;5093234;28;20171;-14
2022/01/25 00:33:52;;;;;;;12.17;4.47;;;16.30;78.50;;;;;;5092541;28;20217;-14
2022/01/25 00:36:21;;;;;;;11.63;4.03;;;16.40;78.40;;;;;;5091573;28;20174;-15
2022/01/25 00:38:48;;;;;;;12.43;3.93;;;16.40;78.40;;;;;;5074556;28;20181;-14
2022/01/25 00:41:15;;;;;;;12.30;3.60;;;16.40;78.30;;;;;;5092745;28;20164;-16
2022/01/25 00:43:41;;;;;;;9.83;3.87;;;16.40;78.20;;;;;;5074648;28;20180;-16
2022/01/25 00:46:10;;;;;;;10.80;3.47;;;16.40;78.00;;;;;;5092950;28;20420;-16
2022/01/25 00:48:43;;;;;;;13.50;3.93;;;16.40;77.80;;;;;;5075226;28;20180;-14
2022/01/25 00:54:00;;;;;;;11.03;3.97;;;16.50;77.50;;;;;;5092137;28;20204;-15
2022/01/25 00:56:36;;;;;;;9.13;3.40;;;16.50;77.30;;;;;;5075419;28;20171;-14
2022/01/25 00:59:15;;;;;;;9.70;3.60;;;16.50;77.20;;;;;;5091602;28;20171;-14
2022/01/25 01:01:42;;;;;;;8.97;3.30;;;16.50;77.10;;;;;;5076218;28;20275;-15
2022/01/25 01:04:09;;;;;;;12.67;3.90;;;16.50;76.90;;;;;;5093325;28;20250;-14
2022/01/25 01:06:37;;;;;;;11.30;4.07;;;16.50;76.70;;;;;;5075279;28;20241;-15
2022/01/25 01:09:05;;;;;;;10.90;4.17;;;16.50;76.50;;;;;;5093243;28;20178;-15
2022/01/25 01:11:38;;;;;;;9.90;3.43;;;16.50;76.40;;;;;;5075672;28;20269;-15
2022/01/25 01:14:18;;;;;;;7.63;3.40;;;16.50;76.20;;;;;;5075046;28;20244;-14
2022/01/25 01:30:43;;;;;;;9.37;3.63;;;16.60;75.50;;;;;;5092857;28;20600;-14
2022/01/25 01:43:38;;;;;;;7.83;3.20;;;16.60;75.40;;;;;;5091893;28;20171;-14
2022/01/25 01:48:50;;;;;;;5.10;2.80;;;16.60;75.30;;;;;;5094649;28;20602;-14
2022/01/25 01:51:21;;;;;;;7.37;2.77;;;16.60;75.20;;;;;;5075776;28;20172;-15
2022/01/25 01:53:47;;;;;;;5.87;3.10;;;16.60;75.30;;;;;;5093827;28;20260;-14
2022/01/25 01:56:13;;;;;;;4.77;2.60;;;16.50;75.20;;;;;;5093476;28;20176;-17
2022/01/25 01:58:40;;;;;;;6.97;3.03;;;16.60;75.10;;;;;;5077633;28;20270;-15
2022/01/25 02:01:13;;;;;;;7.67;3.20;;;16.60;75.10;;;;;;5082161;28;20172;-14
2022/01/25 02:03:39;;;;;;;6.10;2.77;;;16.50;75.00;;;;;;5098217;28;20173;-14
2022/01/25 02:06:05;;;;;;;6.00;3.03;;;16.60;75.10;;;;;;5082640;28;20177;-14
2022/01/25 02:08:31;;;;;;;5.80;2.97;;;16.50;75.00;;;;;;5083720;28;20748;-14
2022/01/25 02:10:57;;;;;;;5.27;2.53;;;16.50;75.10;;;;;;5082369;28;20178;-16
2022/01/25 02:13:22;;;;;;;5.73;2.87;;;16.50;75.20;;;;;;5098665;28;20300;-15
2022/01/25 02:15:50;;;;;;;5.23;2.90;;;16.50;75.20;;;;;;5099156;28;20215;-14
2022/01/25 02:23:47;;;;;;;6.40;2.77;;;16.50;75.30;;;;;;5099608;28;20181;-15
2022/01/25 02:26:14;;;;;;;5.37;2.60;;;16.50;75.40;;;;;;5101032;28;20183;-15
2022/01/25 02:28:43;;;;;;;4.90;2.40;;;16.50;75.40;;;;;;5101030;28;20206;-15
2022/01/25 02:31:12;;;;;;;4.83;2.60;;;16.50;75.50;;;;;;5082106;28;20479;-19
2022/01/25 02:33:38;;;;;;;5.10;2.50;;;16.50;75.50;;;;;;5081948;28;20205;-14
2022/01/25 02:36:11;;;;;;;3.87;2.37;;;16.40;75.50;;;;;;5099133;28;20225;-16
2022/01/25 02:38:38;;;;;;;5.00;2.53;;;16.40;75.50;;;;;;5099799;28;20167;-14
2022/01/25 02:41:05;;;;;;;4.23;2.50;;;16.40;75.50;;;;;;5079949;28;20268;-15
2022/01/25 02:43:34;;;;;;;5.43;2.53;;;16.40;75.50;;;;;;5099610;28;20234;-18
2022/01/25 02:48:53;;;;;;;5.90;2.80;;;16.40;75.50;;;;;;5098639;28;20214;-14
2022/01/25 02:51:40;;;;;;;3.93;2.27;;;16.40;75.50;;;;;;5098902;28;20187;-17
2022/01/25 02:54:08;;;;;;;4.33;2.40;;;16.40;75.50;;;;;;5080562;28;20206;-14
2022/01/25 02:56:36;;;;;;;3.40;2.40;;;16.40;75.60;;;;;;5081702;28;20253;-16
2022/01/25 02:59:04;;;;;;;5.00;2.47;;;16.40;75.60;;;;;;5080664;28;20234;-17
2022/01/25 03:01:30;;;;;;;3.27;2.40;;;16.40;75.60;;;;;;5099513;28;20172;-17
2022/01/25 03:03:56;;;;;;;4.13;2.23;;;16.40;75.40;;;;;;5098930;28;20267;-17
2022/01/25 03:06:24;;;;;;;5.40;2.50;;;16.40;75.40;;;;;;5099209;28;20240;-15
2022/01/25 03:08:50;;;;;;;3.20;2.17;;;16.40;75.40;;;;;;5080711;28;20177;-15
2022/01/25 03:11:18;;;;;;;4.03;2.30;;;16.40;75.40;;;;;;5095362;28;20350;-17
2022/01/25 03:13:50;;;;;;;3.93;2.37;;;16.40;75.30;;;;;;5095593;28;20204;-14
2022/01/25 03:16:22;;;;;;;4.60;2.53;;;16.40;75.30;;;;;;5078764;28;20175;-15
2022/01/25 03:18:49;;;;;;;3.40;2.20;;;16.40;75.30;;;;;;5095578;28;20170;-15
2022/01/25 03:23:45;;;;;;;3.43;2.03;;;16.40;75.30;;;;;;5095398;28;20172;-16
2022/01/25 03:26:11;;;;;;;3.87;2.20;;;16.40;75.30;;;;;;5096033;28;20290;-14
2022/01/25 03:28:38;;;;;;;3.23;2.10;;;16.40;75.20;;;;;;5096478;28;20199;-14
2022/01/25 03:31:04;;;;;;;3.63;2.23;;;16.40;75.10;;;;;;5095763;28;20269;-14
2022/01/25 03:33:29;;;;;;;3.30;2.07;;;16.40;75.10;;;;;;5096154;28;20209;-15
2022/01/25 03:35:55;;;;;;;3.13;2.00;;;16.30;75.00;;;;;;5095779;28;20164;-16
2022/01/25 03:38:21;;;;;;;2.83;2.00;;;16.30;75.10;;;;;;5077731;28;20227;-14
2022/01/25 03:40:47;;;;;;;4.27;2.20;;;16.30;75.30;;;;;;5096842;28;20165;-14
2022/01/25 03:43:15;;;;;;;3.27;2.00;;;16.30;76.10;;;;;;5078483;28;20198;-15
2022/01/25 03:45:45;;;;;;;4.20;1.90;;;16.30;75.80;;;;;;5078439;28;20188;-14
2022/01/25 03:50:39;;;;;;;3.00;2.00;;;16.20;76.10;;;;;;5096183;28;20172;-16
2022/01/25 03:53:05;;;;;;;3.17;2.10;;;16.10;76.30;;;;;;5077863;28;20332;-14
2022/01/25 03:55:31;;;;;;;3.10;2.00;;;16.10;76.60;;;;;;5096461;28;20167;-14
2022/01/25 03:57:57;;;;;;;2.53;1.93;;;16.10;76.90;;;;;;5095560;28;20182;-15
2022/01/25 04:00:23;;;;;;;3.30;2.00;;;16.00;77.10;;;;;;5095852;28;20463;-16
2022/01/25 04:03:04;;;;;;;2.00;1.60;;;16.00;77.30;;;;;;5077129;28;20694;-15
2022/01/25 04:05:47;;;;;;;2.53;1.93;;;16.00;77.70;;;;;;5076598;28;20507;-15
2022/01/25 04:08:14;;;;;;;3.63;2.00;;;16.00;77.60;;;;;;5077100;28;20179;-14
2022/01/25 04:10:41;;;;;;;2.63;1.87;;;17.40;67.80;;;;;;5078125;28;20239;-15
2022/01/25 04:13:08;;;;;;;4.23;1.60;;;18.10;61.70;;;;;;5075797;28;20213;-15
2022/01/25 04:15:35;;;;;;;2.90;1.80;;;19.00;58.00;;;;;;5077437;28;20630;-14
2022/01/25 04:18:26;;;;;;;2.77;1.97;;;19.80;55.60;;;;;;5075975;28;20233;-15
2022/01/25 04:21:26;;;;;;;2.37;1.70;;;20.50;53.60;;;;;;5076278;28;20594;-14
2022/01/25 04:26:25;;;;;;;2.43;1.77;;;21.40;51.00;;;;;;5093914;28;20174;-14
2022/01/25 04:28:51;;;;;;;2.10;1.63;;;21.60;50.50;;;;;;5094370;28;20177;-14
2022/01/25 04:31:19;;;;;;;2.17;1.70;;;21.50;50.30;;;;;;5094385;28;20295;-15
2022/01/25 04:34:06;;;;;;;3.17;2.00;;;21.40;50.40;;;;;;5076615;28;20208;-15
2022/01/25 04:50:17;;;;;;;1.97;1.77;;;19.60;53.40;;;;;;5094564;28;20250;-15
2022/01/25 04:52:58;;;;;;;2.33;1.73;;;19.40;54.00;;;;;;5075277;28;20230;-14
2022/01/25 04:55:32;;;;;;;2.17;1.97;;;19.10;54.70;;;;;;5076219;28;20398;-14
2022/01/25 04:58:06;;;;;;;1.90;1.70;;;18.90;55.40;;;;;;5094562;28;20234;-15
2022/01/25 05:00:33;;;;;;;2.97;2.00;;;18.60;56.20;;;;;;5091809;28;20189;-15
2022/01/25 05:03:15;;;;;;;3.07;1.70;;;18.40;57.10;;;;;;5074175;28;20192;-17
2022/01/25 05:08:53;;;;;;;1.60;1.50;;;17.90;59.10;;;;;;5092766;28;20169;-14
2022/01/25 05:11:34;;;;;;;2.23;1.77;;;17.70;60.30;;;;;;5091602;28;20250;-15
2022/01/25 05:16:29;;;;;;;2.27;1.70;;;17.30;63.40;;;;;;5092595;28;20172;-14
2022/01/25 05:24:29;;;;;;;2.73;1.87;;;17.00;66.30;;;;;;5091738;28;20185;-17
2022/01/25 05:26:54;;;;;;;2.10;1.60;;;16.90;67.10;;;;;;5075151;28;20184;-19
2022/01/25 05:29:20;;;;;;;2.17;1.70;;;16.80;67.60;;;;;;5092333;28;20207;-15
2022/01/25 05:31:46;;;;;;;1.87;1.70;;;16.80;68.80;;;;;;5074885;28;20222;-15
2022/01/25 05:34:12;;;;;;;2.30;1.80;;;16.70;68.60;;;;;;5073825;28;20270;-15
2022/01/25 05:36:39;;;;;;;2.23;1.80;;;16.70;69.20;;;;;;5073849;28;20174;-15
2022/01/25 05:39:31;;;;;;;1.70;1.60;;;16.60;69.60;;;;;;5074394;28;20182;-15
2022/01/25 05:41:58;;;;;;;2.83;1.80;;;16.60;70.00;;;;;;5091171;28;20478;-15
2022/01/25 05:45:16;;;;;;;2.13;1.90;;;16.50;70.50;;;;;;5090282;28;20177;-14
2022/01/25 05:47:14;;;;;;;2.17;1.90;;;16.50;70.90;;;;;;5079751;28;20689;-14
2022/01/25 05:49:43;;;;;;;3.23;1.60;;;16.40;71.30;;;;;;5073613;28;20179;-16
2022/01/25 05:52:09;;;;;;;2.27;1.70;;;16.40;71.50;;;;;;5073481;28;20184;-15
2022/01/25 05:54:37;;;;;;;2.03;1.60;;;16.50;70.90;;;;;;5090466;28;20214;-14
2022/01/25 05:57:03;;;;;;;3.03;1.63;;;16.80;69.60;;;;;;5073043;28;20475;-16
2022/01/25 05:59:28;;;;;;;2.83;1.60;;;17.20;65.90;;;;;;5071708;28;20542;-16
2022/01/25 06:01:54;;;;;;;1.70;1.60;;;18.00;60.80;;;;;;5072013;28;20789;-17
2022/01/25 06:04:24;;;;;;;3.03;1.73;;;18.40;58.30;;;;;;5072280;28;20671;-16
2022/01/25 06:06:50;;;;;;;2.10;1.70;;;18.80;56.80;;;;;;5089525;28;20365;-15
2022/01/25 06:09:16;;;;;;;3.00;2.10;;;19.00;56.10;;;;;;5072094;28;20217;-14
2022/01/25 06:11:42;;;;;;;2.07;1.80;;;19.30;55.20;;;;;;5090100;28;20188;-16
2022/01/25 06:14:08;;;;;;;1.73;1.60;;;19.70;54.20;;;;;;5089707;28;20204;-17
2022/01/25 06:16:34;;;;;;;1.80;1.60;;;19.80;53.70;;;;;;5071414;28;20172;-16
2022/01/25 06:19:00;;;;;;;1.60;1.50;;;19.90;53.30;;;;;;5089146;28;20541;-17
2022/01/25 06:21:26;;;;;;;3.20;1.83;;;19.70;53.30;;;;;;5089593;28;20174;-17
2022/01/25 06:23:53;;;;;;;1.70;1.60;;;19.50;53.70;;;;;;5069900;28;20198;-15
2022/01/25 06:26:19;;;;;;;1.93;1.70;;;19.20;54.20;;;;;;5069315;28;20630;-15
2022/01/25 06:28:45;;;;;;;2.63;2.10;;;19.00;54.90;;;;;;5070679;28;20179;-14
2022/01/25 06:31:11;;;;;;;2.87;2.00;;;18.70;55.60;;;;;;5087483;28;20176;-17
2022/01/25 06:33:41;;;;;;;3.27;2.00;;;18.40;56.50;;;;;;5069567;28;20204;-15
2022/01/25 06:36:08;;;;;;;1.87;1.67;;;18.20;57.40;;;;;;5070011;28;20198;-15
2022/01/25 06:38:33;;;;;;;3.20;1.80;;;18.00;58.30;;;;;;5085577;28;20639;-14
2022/01/25 06:40:59;;;;;;;4.23;2.00;;;17.80;59.20;;;;;;5068262;28;20644;-15
2022/01/25 06:43:25;;;;;;;2.30;1.97;;;17.60;60.40;;;;;;5087841;28;20328;-14
2022/01/25 06:45:56;;;;;;;6.03;2.37;;;17.40;61.70;;;;;;5073092;28;20246;-15
2022/01/25 06:48:23;;;;;;;2.87;2.00;;;17.30;63.00;;;;;;5075508;28;20173;-14
2022/01/25 06:50:48;;;;;;;3.40;2.20;;;17.20;64.20;;;;;;5091981;28;20173;-15
2022/01/25 06:53:14;;;;;;;2.73;2.10;;;17.00;65.10;;;;;;5074224;28;20501;-15
2022/01/25 06:55:40;;;;;;;3.17;2.23;;;16.90;65.90;;;;;;5074547;28;20172;-15
2022/01/25 06:58:07;;;;;;;5.23;2.50;;;16.90;66.70;;;;;;5074659;28;20537;-14
2022/01/25 07:00:33;;;;;;;3.53;2.70;;;16.80;67.10;;;;;;5092573;28;20205;-15
2022/01/25 07:02:59;;;;;;;4.80;2.60;;;16.70;67.60;;;;;;5073324;28;20190;-14
2022/01/25 07:05:25;;;;;;;3.73;2.60;;;16.60;68.10;;;;;;5072884;28;20280;-14
2022/01/25 07:07:52;;;;;;;3.70;2.43;;;16.60;68.60;;;;;;5092617;28;20260;-16
2022/01/25 07:10:18;;;;;;;4.17;2.67;;;16.50;69.20;;;;;;5074258;28;20177;-16
2022/01/25 07:12:44;;;;;;;5.10;3.20;;;16.50;69.50;;;;;;5074065;28;20224;-15
2022/01/25 07:15:09;;;;;;;5.03;3.23;;;16.40;69.80;;;;;;5073967;28;20601;-14
2022/01/25 07:17:35;;;;;;;5.90;3.03;;;16.40;70.00;;;;;;5092826;28;20495;-16
2022/01/25 07:20:05;;;;;;;4.03;2.97;;;16.40;69.90;;;;;;5073155;28;20237;-16
2022/01/25 07:22:31;;;;;;;6.17;2.97;;;16.40;69.40;;;;;;5094445;28;20175;-14
2022/01/25 07:24:57;;;;;;;4.83;3.20;;;16.60;68.40;;;;;;5073530;28;20205;-14
2022/01/25 07:27:23;;;;;;;6.27;3.20;;;16.90;66.50;;;;;;5091597;28;20511;-14
2022/01/25 07:29:48;;;;;;;3.20;2.60;;;17.70;61.90;;;;;;5090816;28;20586;-16
2022/01/25 07:32:14;;;;;;;3.63;2.97;;;18.50;57.80;;;;;;5072364;28;20235;-14
2022/01/25 07:34:40;;;;;;;4.67;2.93;;;18.90;55.90;;;;;;5089625;28;20575;-15
2022/01/25 07:37:06;;;;;;;3.60;2.87;;;19.10;55.00;;;;;;5072591;28;20181;-16
2022/01/25 07:39:32;;;;;;;6.73;3.10;;;19.20;54.70;;;;;;5071757;28;20285;-15
2022/01/25 07:41:58;;;;;;;4.77;3.40;;;19.30;54.20;;;;;;5088781;28;20182;-15
2022/01/25 07:44:28;;;;;;;4.67;3.17;;;19.40;54.00;;;;;;5090041;28;20511;-15
2022/01/25 07:46:57;;;;;;;4.20;3.00;;;19.40;53.90;;;;;;5091655;28;20176;-18
2022/01/25 07:49:27;;;;;;;6.93;3.40;;;19.40;53.80;;;;;;5091462;28;20563;-14
2022/01/25 07:51:53;;;;;;;4.60;3.30;;;19.10;54.20;;;;;;5073587;28;20189;-15
2022/01/25 07:54:20;;;;;;;4.97;3.67;;;18.90;54.70;;;;;;5072768;28;20203;-17
2022/01/25 07:56:47;;;;;;;4.50;3.30;;;18.60;55.40;;;;;;5071896;28;20180;-17
2022/01/25 07:59:13;;;;;;;4.53;3.43;;;18.40;56.20;;;;;;5090705;28;20170;-15
2022/01/25 08:01:40;;;;;;;4.90;3.50;;;18.20;57.00;;;;;;5071078;28;20518;-15
2022/01/25 08:04:07;;;;;;;5.10;3.30;;;18.00;57.90;;;;;;5073363;28;20280;-15
2022/01/25 08:06:33;;;;;;;5.67;3.60;;;17.80;58.30;;;;;;5071601;28;20192;-14
2022/01/25 08:09:00;;;;;;;8.10;3.70;;;17.60;59.40;;;;;;5073088;28;20182;-16
2022/01/25 08:11:25;;;;;;;4.53;3.40;;;17.50;60.10;;;;;;5072668;28;20180;-14
2022/01/25 08:13:52;;;;;;;5.47;3.53;;;17.30;61.00;;;;;;5090538;28;20211;-15
2022/01/25 08:16:18;;;;;;;4.17;3.30;;;17.20;61.90;;;;;;5088772;28;20430;-15
2022/01/25 08:18:44;;;;;;;5.30;3.87;;;17.10;62.80;;;;;;5072009;28;20552;-15
2022/01/25 08:21:10;;;;;;;4.30;3.50;;;17.00;63.50;;;;;;5071950;28;20180;-15
2022/01/25 08:23:36;;;;;;;4.70;3.73;;;16.90;64.20;;;;;;5071355;28;20683;-15
2022/01/25 08:26:03;;;;;;;5.70;3.67;;;16.90;64.90;;;;;;5089893;28;20193;-14
2022/01/25 08:28:30;;;;;;;4.53;3.40;;;16.80;65.30;;;;;;5089509;28;20188;-15
2022/01/25 08:30:56;;;;;;;5.07;3.63;;;16.70;65.90;;;;;;5071511;28;20186;-14
2022/01/25 08:33:22;;;;;;;4.57;3.37;;;16.70;66.40;;;;;;5089525;28;20215;-16
2022/01/25 08:35:48;;;;;;;4.10;3.53;;;16.60;66.80;;;;;;5071561;28;20172;-14
2022/01/25 08:38:13;;;;;;;4.10;3.43;;;16.60;67.40;;;;;;5088178;28;20260;-15
2022/01/25 08:40:39;;;;;;;3.80;3.40;;;16.50;67.70;;;;;;5071658;28;20399;-14
2022/01/25 08:43:05;;;;;;;4.07;3.50;;;16.50;68.10;;;;;;5089518;28;20447;-14
2022/01/25 08:45:31;;;;;;;5.67;4.50;;;16.40;68.20;;;;;;5088957;28;20180;-14
2022/01/25 08:47:57;;;;;;;4.73;3.80;;;16.40;68.70;;;;;;5088510;28;20182;-17
2022/01/25 08:50:24;;;;;;;6.03;3.97;;;16.30;69.10;;;;;;5070931;28;20172;-16
2022/01/25 08:52:50;;;;;;;4.77;4.10;;;16.30;69.40;;;;;;5071215;28;20279;-15
2022/01/25 08:55:16;;;;;;;4.73;4.17;;;16.40;69.40;;;;;;5088825;28;20194;-16
2022/01/25 08:57:41;;;;;;;5.50;4.03;;;16.40;68.80;;;;;;5071066;28;20554;-14
2022/01/25 09:00:10;;;;;;;5.40;3.67;;;16.80;67.00;;;;;;5069950;28;20468;-15
2022/01/25 09:02:36;;;;;;;5.03;3.60;;;17.60;61.70;;;;;;5089279;28;20700;-16
2022/01/25 09:05:03;;;;;;;6.00;3.97;;;18.00;58.80;;;;;;5088797;28;20257;-16
2022/01/25 09:07:29;;;;;;;4.37;3.47;;;18.40;57.40;;;;;;5087335;28;20209;-14
2022/01/25 09:09:55;;;;;;;4.40;3.70;;;18.70;56.40;;;;;;5071670;28;20174;-17
2022/01/25 09:12:23;;;;;;;6.43;4.20;;;18.90;55.60;;;;;;5071922;28;20239;-18
2022/01/25 09:14:49;;;;;;;4.57;3.60;;;19.10;55.30;;;;;;5069420;28;20220;-15
2022/01/25 09:17:15;;;;;;;5.30;3.93;;;19.20;54.40;;;;;;5071084;28;20177;-16
2022/01/25 09:19:42;;;;;;;5.53;3.93;;;19.10;54.20;;;;;;5070868;28;20360;-14
2022/01/25 09:22:09;;;;;;;4.40;4.00;;;19.00;54.60;;;;;;5071133;28;20178;-16
2022/01/25 09:24:37;;;;;;;4.40;4.00;;;18.70;55.00;;;;;;5070179;28;20196;-17
2022/01/25 09:27:05;;;;;;;4.73;4.07;;;18.50;55.60;;;;;;5068483;28;20184;-16
2022/01/25 09:29:31;;;;;;;4.87;3.90;;;18.30;56.20;;;;;;5070293;28;20275;-14
2022/01/25 09:31:57;;;;;;;5.07;3.93;;;18.10;56.80;;;;;;5070372;28;20180;-15
2022/01/25 09:34:25;;;;;;;5.27;4.23;;;17.90;57.50;;;;;;5069982;28;20468;-15
2022/01/25 09:36:51;;;;;;;4.33;3.93;;;17.70;58.20;;;;;;5069465;28;20214;-16
2022/01/25 09:39:19;;;;;;;5.27;3.80;;;17.60;59.00;;;;;;5070423;28;20172;-15
2022/01/25 09:41:45;;;;;;;5.33;3.93;;;17.40;59.70;;;;;;5088104;28;20169;-14
2022/01/25 09:44:11;;;;;;;4.73;3.67;;;17.30;60.80;;;;;;5070470;28;20272;-16
2022/01/25 09:46:39;;;;;;;4.93;3.77;;;17.20;61.80;;;;;;5089235;28;20297;-17
2022/01/25 09:49:06;;;;;;;5.63;4.20;;;17.10;62.80;;;;;;5089548;28;20290;-15
2022/01/25 09:51:34;;;;;;;4.63;4.03;;;17.00;63.70;;;;;;5089747;28;20164;-17
2022/01/25 09:54:00;;;;;;;5.17;3.70;;;16.90;64.60;;;;;;5088893;28;20195;-15
2022/01/25 09:56:25;;;;;;;6.43;4.13;;;16.90;65.50;;;;;;5088562;28;20651;-14
2022/01/25 09:58:52;;;;;;;5.63;3.97;;;16.80;66.40;;;;;;5088497;28;20195;-14
2022/01/25 10:01:26;;;;;;;6.43;4.43;;;16.80;67.40;;;;;;5088266;28;20275;-17
2022/01/25 10:03:51;;;;;;;7.53;4.50;;;16.70;68.50;;;;;;5087674;28;20534;-16
2022/01/25 10:06:20;;;;;;;4.37;3.73;;;16.70;69.40;;;;;;5087223;28;20172;-14
2022/01/25 10:08:51;;;;;;;7.90;4.27;;;16.70;70.60;;;;;;5069593;28;20191;-14
2022/01/25 10:11:21;;;;;;;5.30;3.90;;;16.60;71.70;;;;;;5088707;28;20263;-15
2022/01/25 10:13:50;;;;;;;9.30;4.27;;;16.60;72.40;;;;;;5087164;28;20227;-14
2022/01/25 10:16:31;;;;;;;4.87;3.90;;;16.60;72.90;;;;;;5087595;28;20558;-14
2022/01/25 10:19:10;;;;;;;8.47;4.40;;;16.60;73.50;;;;;;5071445;28;20183;-14
2022/01/25 10:21:49;;;;;;;5.37;4.00;;;16.50;74.00;;;;;;5091600;28;20168;-14
2022/01/25 10:24:19;;;;;;;6.00;4.23;;;16.60;74.00;;;;;;5092643;28;20167;-15
2022/01/25 10:26:54;;;;;;;4.87;4.13;;;16.60;73.00;;;;;;5073313;28;20176;-15
2022/01/25 10:29:34;;;;;;;6.47;4.40;;;16.60;72.80;;;;;;5073501;28;20172;-15
2022/01/25 10:32:12;;;;;;;6.07;4.10;;;16.70;72.20;;;;;;5091812;28;20595;-16
2022/01/25 10:34:49;;;;;;;6.07;4.30;;;17.00;70.40;;;;;;5073596;28;20515;-15
2022/01/25 10:37:22;;;;;;;5.03;4.10;;;17.30;68.50;;;;;;5072634;28;20173;-15
2022/01/25 10:39:52;;;;;;;4.93;4.10;;;17.60;66.20;;;;;;5091798;28;20204;-14
2022/01/25 10:42:31;;;;;;;6.10;4.20;;;17.90;63.80;;;;;;5071502;28;20476;-16
2022/01/25 10:45:09;;;;;;;6.30;4.13;;;18.30;61.40;;;;;;5091687;28;20466;-14
2022/01/25 10:47:44;;;;;;;5.13;4.03;;;18.50;59.60;;;;;;5073277;28;20178;-14
2022/01/25 10:50:24;;;;;;;5.30;4.10;;;18.50;59.20;;;;;;5073337;28;20612;-14
2022/01/25 10:53:05;;;;;;;5.23;4.10;;;18.40;59.60;;;;;;5073766;28;20171;-14
2022/01/25 10:55:40;;;;;;;5.50;4.17;;;18.20;60.60;;;;;;5092326;28;20177;-15
2022/01/25 10:58:07;;;;;;;5.53;4.57;;;18.00;62.10;;;;;;5091561;28;20374;-15
2022/01/25 11:00:36;;;;;;;6.60;4.23;;;17.80;63.40;;;;;;5073339;28;20176;-24
2022/01/25 11:03:05;;;;;;;4.87;4.40;;;17.70;64.80;;;;;;5074481;28;20469;-15
2022/01/25 11:05:33;;;;;;;5.50;4.17;;;17.60;66.10;;;;;;5073309;28;20310;-15
2022/01/25 11:08:13;;;;;;;7.20;4.87;;;17.40;67.10;;;;;;5091029;28;20171;-14
2022/01/25 11:10:52;;;;;;;7.63;4.30;;;17.30;67.80;;;;;;5073456;28;20187;-17
2022/01/25 11:15:53;;;;;;;6.77;5.00;;;17.10;69.90;;;;;;5093111;28;20635;-16
2022/01/25 11:18:20;;;;;;;6.60;4.70;;;17.10;70.30;;;;;;5075397;28;20312;-15
2022/01/25 11:20:47;;;;;;;6.30;4.40;;;17.00;70.80;;;;;;5090688;28;20325;-14
2022/01/25 11:23:13;;;;;;;6.90;4.50;;;17.00;71.40;;;;;;5073131;28;20265;-14
2022/01/25 11:25:40;;;;;;;9.10;4.40;;;16.90;72.60;;;;;;5073306;28;20186;-15
2022/01/25 11:28:06;;;;;;;5.77;4.77;;;16.90;73.80;;;;;;5072948;28;20349;-15
2022/01/25 11:30:32;;;;;;;7.63;4.57;;;16.80;74.50;;;;;;5071394;28;20423;-15
2022/01/25 11:32:59;;;;;;;7.07;5.60;;;16.80;74.80;;;;;;5089536;28;20217;-14
2022/01/25 11:35:26;;;;;;;9.17;5.17;;;16.80;75.00;;;;;;5070417;28;20172;-14
2022/01/25 11:37:53;;;;;;;10.57;5.60;;;16.70;74.50;;;;;;5089467;28;20266;-14
2022/01/25 11:40:28;;;;;;;7.37;5.37;;;16.70;74.10;;;;;;5071657;28;20186;-15
2022/01/25 11:43:01;;;;;;;11.17;5.77;;;16.70;73.80;;;;;;5071002;28;20431;-15
2022/01/25 11:45:35;;;;;;;11.50;5.90;;;16.70;73.40;;;;;;5071172;28;20284;-14
2022/01/25 11:48:01;;;;;;;8.03;5.97;;;16.60;73.60;;;;;;5089013;28;20289;-14
2022/01/25 11:50:28;;;;;;;7.33;5.50;;;16.60;73.90;;;;;;5071160;28;20188;-15
2022/01/25 11:52:56;;;;;;;9.80;5.47;;;16.60;74.60;;;;;;5089847;28;20272;-16
2022/01/25 11:55:30;;;;;;;8.20;5.60;;;16.60;75.50;;;;;;5071283;28;20579;-14
2022/01/25 11:58:05;;;;;;;6.30;5.20;;;16.60;76.30;;;;;;5087897;28;20499;-14
2022/01/25 12:00:43;;;;;;;8.57;5.47;;;16.60;76.40;;;;;;5089146;28;20595;-16
2022/01/25 12:03:46;;;;;;;8.80;5.37;;;16.60;75.70;;;;;;5088166;28;20179;-15
2022/01/25 12:06:18;;;;;;;9.27;5.10;;;16.80;74.10;;;;;;5074803;28;20609;-14
2022/01/25 12:12:06;;;;;;;6.77;5.20;;;17.40;70.20;;;;;;5088660;28;20190;-17
2022/01/25 12:14:41;;;;;;;6.97;5.20;;;18.00;65.70;;;;;;5087359;28;20384;-14
2022/01/25 12:17:26;;;;;;;7.70;4.97;;;18.60;61.50;;;;;;5070029;28;20196;-15
2022/01/25 12:20:02;;;;;;;6.13;4.53;;;18.90;59.30;;;;;;5056455;28;20172;-14
2022/01/25 12:25:14;;;;;;;7.77;5.30;;;18.90;58.70;;;;;;5088634;28;20177;-14
2022/01/25 12:27:57;;;;;;;5.93;4.93;;;18.80;59.30;;;;;;5088115;28;20218;-15
2022/01/25 12:30:26;;;;;;;7.17;4.80;;;18.50;60.40;;;;;;5089357;28;20174;-18
2022/01/25 12:33:02;;;;;;;6.73;5.20;;;18.20;62.10;;;;;;5069918;28;20189;-17
2022/01/25 12:36:00;;;;;;;9.73;5.23;;;18.00;63.60;;;;;;5087683;28;20561;-14
2022/01/25 12:38:38;;;;;;;8.40;5.40;;;17.80;65.20;;;;;;5053795;28;20174;-14
2022/01/25 12:41:08;;;;;;;7.03;5.17;;;17.70;66.50;;;;;;5068785;28;20475;-14
2022/01/25 12:43:38;;;;;;;9.20;5.10;;;17.50;67.50;;;;;;5086508;28;20162;-14
2022/01/25 12:46:14;;;;;;;9.17;5.47;;;17.40;68.40;;;;;;5070114;28;20182;-15
2022/01/25 12:48:42;;;;;;;6.17;5.00;;;17.30;69.00;;;;;;5088301;28;20168;-14
2022/01/25 12:51:12;;;;;;;6.60;4.93;;;17.30;69.50;;;;;;5069696;28;20242;-14
2022/01/25 12:53:42;;;;;;;7.23;5.60;;;17.20;70.00;;;;;;5088046;28;20233;-16
2022/01/25 12:56:16;;;;;;;6.70;5.27;;;17.10;70.60;;;;;;5089205;28;20251;-15
2022/01/25 12:58:47;;;;;;;6.53;4.93;;;17.00;71.00;;;;;;5088152;28;20231;-18
2022/01/25 13:01:20;;;;;;;6.47;5.53;;;17.00;71.50;;;;;;5069465;28;20185;-15
2022/01/25 13:03:48;;;;;;;6.40;5.07;;;16.90;72.00;;;;;;5069584;28;20205;-15
2022/01/25 13:06:19;;;;;;;7.40;5.00;;;16.90;72.50;;;;;;5070467;28;20165;-14
2022/01/25 13:08:58;;;;;;;10.67;5.20;;;16.80;73.00;;;;;;5088007;28;20197;-16
2022/01/25 13:11:36;;;;;;;7.17;5.20;;;16.80;73.50;;;;;;5071682;28;20517;-15
2022/01/25 13:17:12;;;;;;;8.23;5.07;;;16.80;74.30;;;;;;5004289;28;20256;-16
2022/01/25 13:19:44;;;;;;;9.10;5.13;;;16.70;74.60;;;;;;5074079;28;20230;-14
2022/01/25 13:22:18;;;;;;;7.97;5.60;;;16.70;74.90;;;;;;5087425;28;20162;-15
2022/01/25 13:24:58;;;;;;;5.87;5.20;;;16.70;75.10;;;;;;5072033;28;20424;-15
2022/01/25 13:27:29;;;;;;;7.33;5.27;;;16.60;75.30;;;;;;5087507;28;20378;-16
2022/01/25 13:32:42;;;;;;;5.53;4.60;;;16.60;75.80;;;;;;5087683;28;20167;-16
2022/01/25 13:35:22;;;;;;;5.73;4.80;;;16.60;76.00;;;;;;5070621;28;20183;-16
2022/01/25 13:38:12;;;;;;;6.43;4.80;;;16.60;76.00;;;;;;5070781;28;20170;-17
2022/01/25 13:41:16;;;;;;;6.50;5.00;;;16.60;75.90;;;;;;5069731;28;20283;-14
2022/01/25 13:46:33;;;;;;;5.07;4.50;;;16.80;73.80;;;;;;5086650;28;20171;-14
2022/01/25 13:49:02;;;;;;;5.97;4.93;;;17.10;71.60;;;;;;5087629;28;20170;-16
2022/01/25 13:51:36;;;;;;;6.80;4.97;;;17.40;69.60;;;;;;5068706;28;20183;-16
2022/01/25 13:54:02;;;;;;;5.70;4.70;;;17.60;67.40;;;;;;5086574;28;20668;-14
2022/01/25 13:56:31;;;;;;;5.63;4.30;;;17.90;64.80;;;;;;5086232;28;20233;-16
2022/01/25 13:59:00;;;;;;;6.77;4.73;;;18.20;62.50;;;;;;5085683;28;20198;-14
2022/01/25 14:01:28;;;;;;;4.80;4.30;;;18.40;61.00;;;;;;5068782;28;20176;-15
2022/01/25 14:03:58;;;;;;;8.03;4.90;;;18.40;60.20;;;;;;5087872;28;20465;-15
2022/01/25 14:06:30;;;;;;;5.07;4.50;;;18.30;61.30;;;;;;5069323;28;20286;-15
2022/01/25 14:09:07;;;;;;;5.70;4.83;;;18.20;61.40;;;;;;5069596;28;20176;-14
2022/01/25 14:25:40;;;;;;;5.93;4.80;;;17.30;67.80;;;;;;5087016;28;20506;-14
2022/01/25 14:28:10;;;;;;;5.70;4.47;;;17.20;68.60;;;;;;5086253;28;20168;-15
2022/01/25 14:30:38;;;;;;;5.80;4.30;;;17.10;69.30;;;;;;5088146;28;20284;-15
2022/01/25 14:33:14;;;;;;;4.57;4.10;;;17.00;69.90;;;;;;5086304;28;20196;-17
2022/01/25 14:35:56;;;;;;;6.23;4.20;;;17.00;70.60;;;;;;5087320;28;20161;-17
2022/01/25 14:38:23;;;;;;;5.50;3.97;;;16.90;71.20;;;;;;5088002;28;20190;-15
2022/01/25 14:41:01;;;;;;;4.97;4.47;;;16.90;71.80;;;;;;5068879;28;20180;-16
2022/01/25 14:43:39;;;;;;;5.23;4.27;;;16.80;72.50;;;;;;5068252;28;20183;-16
2022/01/25 14:46:13;;;;;;;5.63;4.43;;;16.80;73.30;;;;;;5069351;28;20203;-14
2022/01/25 14:48:42;;;;;;;6.27;4.90;;;16.80;74.10;;;;;;5068658;28;20540;-15
2022/01/25 14:51:12;;;;;;;6.47;5.10;;;16.70;74.70;;;;;;5069774;28;20182;-14
2022/01/25 14:53:41;;;;;;;8.23;4.87;;;16.70;75.50;;;;;;5072424;28;20208;-16
2022/01/25 14:56:07;;;;;;;7.60;5.20;;;16.70;76.30;;;;;;5094554;28;20164;-15
2022/01/25 15:01:32;;;;;;;8.47;5.43;;;16.60;77.30;;;;;;5040440;28;20218;-14
2022/01/25 15:03:58;;;;;;;6.73;5.30;;;16.60;77.60;;;;;;5068264;28;20183;-14
2022/01/25 15:06:25;;;;;;;11.17;5.90;;;16.60;78.00;;;;;;5071032;28;20167;-15
2022/01/25 15:08:52;;;;;;;6.97;5.33;;;16.60;78.40;;;;;;5091022;28;20194;-14
2022/01/25 15:11:20;;;;;;;9.47;5.87;;;16.60;78.60;;;;;;5090369;28;20165;-15
2022/01/25 15:13:46;;;;;;;9.13;5.47;;;16.50;78.20;;;;;;5073445;28;20208;-15